createdAt,value
2018-12-09T00:00:05.536Z,0.10
2018-12-09T00:02:43.067Z,0.20
2018-12-09T00:05:20.709Z,0.20
2018-12-09T00:07:58.216Z,0.20
2018-12-09T00:10:35.771Z,0.10
2018-12-09T00:13:13.288Z,0.20
2018-12-09T00:15:52.912Z,0.10
2018-12-09T00:18:30.429Z,0.13
2018-12-09T00:21:07.959Z,0.10
2018-12-09T00:23:45.469Z,0.20
2018-12-09T00:26:23.009Z,0.20
2018-12-09T00:29:00.538Z,0.20
2018-12-09T00:31:38.059Z,0.20
2018-12-09T00:34:25.750Z,0.30
2018-12-09T00:37:03.302Z,0.20
2018-12-09T00:39:40.824Z,0.10
2018-12-09T00:42:18.301Z,0.20
2018-12-09T00:44:55.960Z,0.40
2018-12-09T00:47:33.474Z,0.37
2018-12-09T00:50:11.048Z,0.50
2018-12-09T00:52:48.565Z,0.30
2018-12-09T00:55:35.684Z,0.40
2018-12-09T00:58:13.255Z,0.50
2018-12-09T01:00:50.807Z,0.30
2018-12-09T01:03:28.334Z,0.30
2018-12-09T01:06:22.820Z,0.30
2018-12-09T01:09:00.327Z,0.40
2018-12-09T01:11:37.857Z,0.27
2018-12-09T01:14:15.500Z,0.30
2018-12-09T01:16:53.015Z,0.20
2018-12-09T01:19:30.537Z,0.30
2018-12-09T01:22:08.059Z,0.30
2018-12-09T01:24:48.969Z,0.27
2018-12-09T01:27:26.472Z,0.30
2018-12-09T01:30:04.002Z,0.37
2018-12-09T01:32:41.500Z,0.30
2018-12-09T01:35:25.253Z,0.30
2018-12-09T01:38:02.757Z,0.20
2018-12-09T01:40:57.415Z,0.30
2018-12-09T01:43:38.208Z,0.30
2018-12-09T01:46:15.737Z,0.20
2018-12-09T01:48:53.248Z,0.20
2018-12-09T01:51:30.778Z,0.30
2018-12-09T01:54:33.688Z,0.27
2018-12-09T01:57:11.198Z,0.30
2018-12-09T01:59:48.729Z,0.30
2018-12-09T02:02:26.242Z,1.23
2018-12-09T02:05:10.091Z,0.20
2018-12-09T02:07:47.594Z,0.30
2018-12-09T02:10:25.117Z,0.23
2018-12-09T02:13:02.634Z,0.30
2018-12-09T02:15:40.252Z,0.30
2018-12-09T02:18:17.746Z,0.20
2018-12-09T02:20:55.293Z,0.20
2018-12-09T02:23:32.792Z,0.30
2018-12-09T02:26:10.359Z,0.30
2018-12-09T02:28:47.885Z,0.40
2018-12-09T02:31:25.413Z,0.20
2018-12-09T02:34:06.347Z,0.30
2018-12-09T02:36:43.870Z,0.30
2018-12-09T02:39:21.386Z,0.30
2018-12-09T02:41:58.929Z,0.27
2018-12-09T02:44:36.545Z,0.37
2018-12-09T02:47:14.154Z,0.33
2018-12-09T02:49:51.666Z,0.30
2018-12-09T02:52:29.235Z,0.30
2018-12-09T02:55:10.439Z,0.20
2018-12-09T02:57:47.943Z,0.20
2018-12-09T03:00:25.491Z,0.30
2018-12-09T03:03:02.974Z,0.30
2018-12-09T03:05:45.796Z,0.50
2018-12-09T03:08:23.322Z,0.80
2018-12-09T03:11:00.884Z,0.40
2018-12-09T03:13:38.453Z,0.90
2018-12-09T03:16:15.979Z,0.40
2018-12-09T03:18:53.596Z,0.50
2018-12-09T03:21:31.015Z,0.40
2018-12-09T03:24:08.640Z,0.50
2018-12-09T03:26:46.193Z,0.60
2018-12-09T03:29:23.718Z,0.40
2018-12-09T03:32:01.265Z,0.63
2018-12-09T03:34:41.984Z,0.30
2018-12-09T03:37:19.534Z,0.20
2018-12-09T03:39:57.036Z,0.10
2018-12-09T03:42:34.545Z,0.20
2018-12-09T03:45:12.155Z,0.20
2018-12-09T03:47:49.672Z,0.30
2018-12-09T03:50:27.181Z,0.20
2018-12-09T03:53:04.727Z,0.33
2018-12-09T03:55:42.341Z,0.20
2018-12-09T03:58:19.852Z,0.20
2018-12-09T04:00:57.391Z,0.10
2018-12-09T04:03:34.982Z,0.10
2018-12-09T04:06:12.504Z,0.10
2018-12-09T04:08:50.019Z,0.20
2018-12-09T04:11:27.546Z,0.20
2018-12-09T04:14:05.175Z,0.20
2018-12-09T04:16:42.711Z,0.10
2018-12-09T04:19:20.210Z,0.67
2018-12-09T04:21:57.747Z,0.40
2018-12-09T04:24:55.207Z,0.80
2018-12-09T04:27:32.739Z,0.97
2018-12-09T04:30:10.323Z,0.83
2018-12-09T04:32:47.871Z,1.00
2018-12-09T04:35:25.387Z,0.50
2018-12-09T04:38:02.935Z,0.40
2018-12-09T04:40:40.462Z,0.20
2018-12-09T04:43:18.086Z,0.33
2018-12-09T04:45:55.625Z,0.30
2018-12-09T04:48:33.151Z,0.20
2018-12-09T04:51:10.679Z,0.37
2018-12-09T04:53:54.507Z,0.30
2018-12-09T04:56:32.048Z,0.33
2018-12-09T04:59:25.069Z,0.43
2018-12-09T05:02:02.684Z,0.33
2018-12-09T05:04:40.211Z,0.20
2018-12-09T05:07:17.749Z,0.20
2018-12-09T05:09:55.289Z,0.20
2018-12-09T05:12:32.825Z,0.30
2018-12-09T05:15:13.646Z,0.20
2018-12-09T05:17:51.190Z,0.10
2018-12-09T05:20:28.707Z,0.40
2018-12-09T05:23:06.384Z,1.50
2018-12-09T05:25:43.894Z,0.30
2018-12-09T05:28:21.435Z,0.57
2018-12-09T05:30:58.939Z,0.73
2018-12-09T05:33:46.132Z,0.37
2018-12-09T05:36:23.668Z,0.30
2018-12-09T05:39:01.177Z,0.43
2018-12-09T05:41:38.708Z,0.30
2018-12-09T05:44:25.829Z,0.50
2018-12-09T05:47:03.384Z,0.83
2018-12-09T05:49:40.911Z,0.40
2018-12-09T05:52:18.482Z,0.20
2018-12-09T05:54:56.108Z,0.67
2018-12-09T05:57:33.661Z,0.27
2018-12-09T06:00:11.511Z,0.40
2018-12-09T06:03:17.598Z,0.30
2018-12-09T06:05:55.123Z,0.30
2018-12-09T06:08:32.657Z,0.30
2018-12-09T06:11:10.161Z,0.53
2018-12-09T06:13:54.705Z,0.40
2018-12-09T06:16:32.250Z,1.30
2018-12-09T06:19:09.842Z,0.30
2018-12-09T06:21:47.354Z,0.73
2018-12-09T06:24:24.975Z,0.40
2018-12-09T06:27:02.520Z,0.27
2018-12-09T06:29:40.026Z,2.00
2018-12-09T06:32:17.564Z,0.63
2018-12-09T06:34:55.095Z,0.20
2018-12-09T06:37:32.638Z,1.30
2018-12-09T06:40:10.257Z,0.37
2018-12-09T06:42:54.274Z,0.57
2018-12-09T06:45:31.795Z,0.37
2018-12-09T06:48:09.543Z,0.30
2018-12-09T06:50:47.038Z,0.73
2018-12-09T06:53:25.692Z,0.97
2018-12-09T06:56:03.206Z,0.80
2018-12-09T06:58:40.756Z,1.60
2018-12-09T07:01:18.268Z,0.30
2018-12-09T07:04:05.365Z,0.53
2018-12-09T07:06:42.858Z,0.33
2018-12-09T07:09:20.416Z,0.40
2018-12-09T07:11:57.951Z,0.50
2018-12-09T07:14:44.960Z,0.37
2018-12-09T07:17:22.507Z,0.87
2018-12-09T07:20:00.024Z,0.67
2018-12-09T07:22:47.564Z,1.00
2018-12-09T07:25:25.084Z,1.13
2018-12-09T07:28:02.621Z,0.67
2018-12-09T07:30:40.135Z,0.77
2018-12-09T07:33:17.738Z,0.67
2018-12-09T07:35:55.247Z,0.90
2018-12-09T07:38:32.793Z,1.37
2018-12-09T07:41:10.299Z,2.13
2018-12-09T07:43:51.085Z,1.10
2018-12-09T07:46:28.612Z,1.53
2018-12-09T07:49:06.135Z,2.63
2018-12-09T07:51:43.661Z,1.70
2018-12-09T07:54:21.253Z,2.50
2018-12-09T07:56:58.768Z,1.17
2018-12-09T07:59:36.304Z,0.80
2018-12-09T08:02:13.824Z,1.47
2018-12-09T08:04:51.383Z,2.00
2018-12-09T08:07:28.953Z,2.03
2018-12-09T08:10:06.474Z,3.33
2018-12-09T08:12:44.097Z,1.23
2018-12-09T08:15:21.613Z,1.07
2018-12-09T08:17:59.168Z,1.27
2018-12-09T08:20:36.670Z,1.83
2018-12-09T08:23:16.338Z,3.00
2018-12-09T08:25:53.859Z,2.03
2018-12-09T08:28:31.403Z,1.30
2018-12-09T08:31:08.930Z,1.60
2018-12-09T08:33:46.594Z,1.93
2018-12-09T08:36:24.102Z,1.47
2018-12-09T08:39:01.630Z,2.77
2018-12-09T08:41:39.145Z,1.57
2018-12-09T08:44:19.918Z,1.00
2018-12-09T08:46:57.450Z,1.20
2018-12-09T08:49:34.979Z,1.70
2018-12-09T08:52:12.605Z,1.60
2018-12-09T08:54:50.130Z,1.37
2018-12-09T08:57:27.629Z,1.00
2018-12-09T09:00:05.164Z,1.03
2018-12-09T09:02:42.774Z,3.13
2018-12-09T09:05:20.336Z,1.27
2018-12-09T09:07:57.879Z,0.90
2018-12-09T09:10:35.404Z,1.33
2018-12-09T09:13:13.084Z,1.60
2018-12-09T09:15:50.601Z,0.83
2018-12-09T09:18:28.135Z,0.93
2018-12-09T09:21:05.668Z,1.20
2018-12-09T09:23:43.243Z,0.57
2018-12-09T09:26:20.768Z,0.80
2018-12-09T09:28:58.285Z,1.07
2018-12-09T09:31:35.796Z,0.97
2018-12-09T09:34:13.344Z,1.77
2018-12-09T09:36:50.894Z,0.70
2018-12-09T09:39:28.440Z,0.80
2018-12-09T09:42:06.097Z,0.60
2018-12-09T09:44:43.657Z,2.50
2018-12-09T09:47:21.184Z,0.87
2018-12-09T09:49:58.740Z,0.80
2018-12-09T09:52:36.309Z,0.60
2018-12-09T09:55:13.853Z,0.57
2018-12-09T09:57:51.371Z,0.67
2018-12-09T10:00:28.901Z,0.93
2018-12-09T10:03:16.325Z,0.73
2018-12-09T10:05:53.869Z,1.00
2018-12-09T10:08:31.439Z,0.60
2018-12-09T10:11:08.947Z,0.40
2018-12-09T10:13:49.799Z,0.40
2018-12-09T10:16:27.321Z,0.40
2018-12-09T10:19:04.878Z,0.50
2018-12-09T10:21:45.723Z,1.00
2018-12-09T10:24:23.270Z,1.03
2018-12-09T10:27:00.892Z,0.43
2018-12-09T10:29:38.428Z,0.40
2018-12-09T10:32:22.237Z,0.40
2018-12-09T10:34:59.768Z,0.30
2018-12-09T10:37:37.286Z,0.40
2018-12-09T10:40:14.839Z,0.40
2018-12-09T10:42:56.925Z,0.50
2018-12-09T10:45:34.462Z,0.63
2018-12-09T10:48:11.969Z,0.50
2018-12-09T10:50:49.537Z,0.60
2018-12-09T10:53:27.295Z,0.63
2018-12-09T10:56:04.845Z,0.40
2018-12-09T10:58:42.337Z,0.70
2018-12-09T11:01:39.961Z,0.50
2018-12-09T11:04:17.513Z,0.77
2018-12-09T11:06:55.091Z,0.97
2018-12-09T11:09:32.608Z,0.50
2018-12-09T11:12:10.220Z,0.90
2018-12-09T11:14:47.781Z,0.60
2018-12-09T11:17:25.294Z,0.50
2018-12-09T11:20:02.825Z,0.87
2018-12-09T11:22:47.246Z,0.50
2018-12-09T11:25:24.779Z,0.73
2018-12-09T11:28:02.282Z,0.87
2018-12-09T11:30:40.138Z,0.87
2018-12-09T11:33:21.033Z,0.67
2018-12-09T11:35:58.553Z,1.23
2018-12-09T11:38:36.058Z,2.40
2018-12-09T11:41:13.587Z,1.40
2018-12-09T11:43:51.119Z,2.83
2018-12-09T11:46:28.651Z,0.80
2018-12-09T11:49:06.196Z,1.13
2018-12-09T11:52:05.679Z,1.00
2018-12-09T11:54:43.211Z,2.60
2018-12-09T11:57:20.707Z,1.40
2018-12-09T11:59:58.243Z,2.00
2018-12-09T12:02:45.168Z,1.40
2018-12-09T12:05:22.711Z,1.27
2018-12-09T12:08:00.222Z,1.83
2018-12-09T12:10:37.782Z,1.93
2018-12-09T12:13:18.837Z,0.90
2018-12-09T12:15:56.366Z,1.20
2018-12-09T12:18:33.868Z,1.70
2018-12-09T12:21:11.518Z,0.80
2018-12-09T12:23:49.032Z,2.17
2018-12-09T12:26:26.580Z,1.20
2018-12-09T12:29:04.092Z,1.30
2018-12-09T12:31:55.691Z,0.73
2018-12-09T12:34:33.236Z,0.87
2018-12-09T12:37:10.776Z,0.80
2018-12-09T12:39:48.358Z,0.90
2018-12-09T12:42:25.958Z,0.53
2018-12-09T12:45:03.496Z,0.67
2018-12-09T12:47:41.007Z,1.00
2018-12-09T12:50:18.544Z,0.80
2018-12-09T12:53:09.223Z,1.50
2018-12-09T12:55:46.773Z,0.67
2018-12-09T12:58:24.291Z,0.70
2018-12-09T13:01:01.950Z,1.13
2018-12-09T13:03:39.477Z,0.60
2018-12-09T13:06:17.004Z,0.70
2018-12-09T13:08:54.533Z,0.73
2018-12-09T13:11:35.391Z,0.93
2018-12-09T13:14:12.896Z,0.80
2018-12-09T13:16:50.452Z,0.87
2018-12-09T13:19:27.954Z,0.67
2018-12-09T13:22:11.814Z,0.63
2018-12-09T13:24:49.356Z,0.50
2018-12-09T13:27:26.860Z,0.53
2018-12-09T13:30:04.387Z,0.40
2018-12-09T13:32:48.242Z,0.40
2018-12-09T13:35:25.780Z,0.50
2018-12-09T13:38:03.307Z,0.50
2018-12-09T13:40:40.843Z,0.50
2018-12-09T13:43:18.366Z,0.50
2018-12-09T13:45:55.918Z,0.73
2018-12-09T13:48:33.439Z,0.60
2018-12-09T13:51:11.096Z,0.60
2018-12-09T13:53:48.615Z,0.50
2018-12-09T13:56:26.205Z,1.30
2018-12-09T13:59:03.718Z,0.70
2018-12-09T14:01:41.391Z,0.77
2018-12-09T14:04:18.905Z,1.40
2018-12-09T14:06:56.430Z,0.60
2018-12-09T14:09:33.959Z,0.60
2018-12-09T14:12:11.622Z,0.50
2018-12-09T14:14:49.132Z,0.60
2018-12-09T14:17:26.687Z,0.50
2018-12-09T14:20:04.217Z,0.40
2018-12-09T14:22:45.163Z,0.50
2018-12-09T14:25:22.717Z,0.70
2018-12-09T14:28:00.220Z,0.40
2018-12-09T14:30:54.415Z,0.50
2018-12-09T14:33:32.028Z,1.47
2018-12-09T14:36:09.740Z,0.60
2018-12-09T14:38:47.265Z,1.17
2018-12-09T14:41:24.916Z,1.00
2018-12-09T14:44:02.432Z,0.70
2018-12-09T14:46:40.045Z,0.80
2018-12-09T14:49:20.056Z,1.13
2018-12-09T14:51:58.797Z,2.00
2018-12-09T14:54:36.292Z,0.60
2018-12-09T14:57:14.021Z,1.17
2018-12-09T14:59:51.552Z,0.80
2018-12-09T15:02:41.174Z,0.90
2018-12-09T15:05:18.766Z,0.53
2018-12-09T15:07:56.329Z,1.00
2018-12-09T15:10:35.998Z,0.70
2018-12-09T15:13:13.555Z,0.60
2018-12-09T15:15:51.132Z,0.70
2018-12-09T15:18:28.716Z,0.43
2018-12-09T15:21:13.841Z,0.60
2018-12-09T15:23:51.405Z,0.70
2018-12-09T15:26:29.054Z,0.90
2018-12-09T15:29:06.571Z,0.50
2018-12-09T15:31:46.147Z,0.60
2018-12-09T15:34:24.793Z,1.57
2018-12-09T15:37:02.427Z,0.50
2018-12-09T15:39:39.958Z,0.97
2018-12-09T15:42:17.563Z,0.50
2018-12-09T15:44:55.138Z,0.60
2018-12-09T15:47:32.692Z,0.60
2018-12-09T15:50:11.943Z,0.67
2018-12-09T15:52:49.497Z,0.60
2018-12-09T15:55:27.053Z,0.60
2018-12-09T15:58:04.585Z,0.53
2018-12-09T16:00:58.803Z,1.30
2018-12-09T16:03:36.363Z,0.40
2018-12-09T16:06:13.943Z,0.50
2018-12-09T16:08:51.493Z,0.50
2018-12-09T16:11:31.140Z,0.53
2018-12-09T16:14:08.671Z,0.50
2018-12-09T16:16:46.260Z,0.47
2018-12-09T16:19:23.847Z,1.07
2018-12-09T16:22:01.510Z,0.30
2018-12-09T16:24:39.027Z,0.47
2018-12-09T16:27:16.636Z,0.50
2018-12-09T16:29:54.227Z,0.50
2018-12-09T16:32:31.926Z,0.50
2018-12-09T16:35:11.480Z,0.80
2018-12-09T16:37:49.014Z,0.60
2018-12-09T16:40:34.921Z,0.57
2018-12-09T16:43:12.464Z,0.40
2018-12-09T16:45:49.969Z,0.50
2018-12-09T16:48:27.564Z,0.40
2018-12-09T16:51:05.156Z,0.60
2018-12-09T16:53:42.916Z,0.63
2018-12-09T16:56:20.466Z,0.40
2018-12-09T16:58:58.035Z,0.50
2018-12-09T17:01:41.765Z,1.07
2018-12-09T17:04:19.228Z,0.60
2018-12-09T17:06:56.763Z,0.57
2018-12-09T17:09:34.297Z,0.53
2018-12-09T17:12:11.965Z,0.53
2018-12-09T17:14:49.503Z,0.50
2018-12-09T17:17:27.065Z,0.60
2018-12-09T17:20:06.340Z,0.77
2018-12-09T17:22:42.360Z,0.80
2018-12-09T17:25:19.901Z,0.67
2018-12-09T17:27:57.660Z,0.50
2018-12-09T17:30:35.304Z,0.50
2018-12-09T17:33:12.870Z,0.60
2018-12-09T17:35:50.393Z,0.87
2018-12-09T17:38:27.975Z,0.60
2018-12-09T17:41:05.612Z,0.50
2018-12-09T17:43:43.220Z,0.73
2018-12-09T17:46:20.772Z,0.60
2018-12-09T17:48:58.558Z,1.10
2018-12-09T17:51:37.746Z,0.70
2018-12-09T17:54:15.345Z,1.10
2018-12-09T17:56:52.897Z,1.43
2018-12-09T17:59:30.532Z,0.60
2018-12-09T18:02:11.673Z,0.80
2018-12-09T18:04:49.192Z,0.73
2018-12-09T18:07:26.744Z,0.60
2018-12-09T18:10:10.561Z,0.53
2018-12-09T18:12:48.421Z,0.60
2018-12-09T18:15:26.350Z,0.60
2018-12-09T18:18:03.973Z,1.30
2018-12-09T18:20:51.112Z,0.57
2018-12-09T18:23:28.662Z,0.80
2018-12-09T18:26:06.160Z,0.50
2018-12-09T18:28:43.688Z,0.53
2018-12-09T18:31:27.823Z,0.57
2018-12-09T18:34:05.430Z,1.17
2018-12-09T18:36:42.968Z,1.00
2018-12-09T18:39:20.559Z,0.80
2018-12-09T18:41:58.209Z,0.73
2018-12-09T18:44:35.892Z,0.57
2018-12-09T18:47:13.490Z,0.60
2018-12-09T18:49:53.162Z,0.53
2018-12-09T18:52:30.786Z,1.40
2018-12-09T18:55:08.544Z,0.77
2018-12-09T18:57:46.727Z,0.50
2018-12-09T19:00:27.730Z,0.60
2018-12-09T19:03:05.428Z,1.63
2018-12-09T19:05:42.942Z,0.57
2018-12-09T19:08:20.506Z,1.10
2018-12-09T19:11:02.677Z,0.50
2018-12-09T19:13:40.230Z,0.73
2018-12-09T19:16:17.759Z,0.60
2018-12-09T19:18:55.337Z,1.27
2018-12-09T19:21:35.022Z,0.93
2018-12-09T19:24:12.633Z,0.77
2018-12-09T19:26:50.227Z,0.50
2018-12-09T19:29:27.949Z,0.60
2018-12-09T19:32:05.908Z,0.40
2018-12-09T19:34:43.485Z,0.93
2018-12-09T19:37:21.037Z,1.07
2018-12-09T19:39:58.766Z,0.40
2018-12-09T19:42:36.330Z,1.30
2018-12-09T19:45:13.921Z,0.80
2018-12-09T19:47:51.484Z,2.00
2018-12-09T19:50:32.660Z,1.60
2018-12-09T19:53:10.252Z,0.87
2018-12-09T19:55:47.845Z,0.60
2018-12-09T19:58:25.659Z,1.23
2018-12-09T20:01:03.355Z,0.70
2018-12-09T20:03:41.033Z,0.60
2018-12-09T20:06:18.628Z,1.63
2018-12-09T20:08:56.246Z,1.20
2018-12-09T20:11:33.883Z,0.93
2018-12-09T20:14:11.484Z,0.63
2018-12-09T20:16:49.191Z,0.70
2018-12-09T20:19:39.887Z,0.50
2018-12-09T20:22:17.586Z,0.77
2018-12-09T20:24:55.499Z,1.80
2018-12-09T20:27:33.804Z,0.63
2018-12-09T20:30:15.973Z,0.67
2018-12-09T20:32:54.606Z,0.93
2018-12-09T20:35:33.011Z,0.57
2018-12-09T20:38:10.583Z,0.60
2018-12-09T20:40:48.215Z,1.17
2018-12-09T20:43:25.801Z,1.07
2018-12-09T20:46:03.434Z,0.63
2018-12-09T20:48:41.062Z,0.63
2018-12-09T20:51:18.765Z,1.73
2018-12-09T20:53:56.539Z,0.70
2018-12-09T20:56:34.178Z,0.53
2018-12-09T20:59:15.392Z,1.47
2018-12-09T21:01:53.066Z,1.33
2018-12-09T21:04:30.651Z,1.53
2018-12-09T21:07:08.241Z,1.20
2018-12-09T21:09:46.940Z,2.00
2018-12-09T21:12:24.698Z,0.60
2018-12-09T21:15:02.280Z,1.30
2018-12-09T21:17:39.845Z,1.10
2018-12-09T21:20:19.535Z,1.90
2018-12-09T21:22:57.086Z,1.23
2018-12-09T21:25:34.671Z,1.93
2018-12-09T21:28:14.319Z,2.13
2018-12-09T21:30:55.010Z,2.13
2018-12-09T21:33:36.506Z,4.03
2018-12-09T21:36:12.396Z,1.90
2018-12-09T21:38:49.929Z,3.93
2018-12-09T21:41:27.991Z,3.93
2018-12-09T21:44:06.263Z,2.87
2018-12-09T21:46:43.763Z,2.00
2018-12-09T21:49:21.405Z,3.70
2018-12-09T21:52:00.027Z,1.60
2018-12-09T21:54:37.563Z,2.77
2018-12-09T21:57:15.093Z,2.10
2018-12-09T21:59:57.927Z,2.33
2018-12-09T22:02:35.439Z,0.77
2018-12-09T22:05:12.968Z,2.17
2018-12-09T22:07:50.475Z,2.33
2018-12-09T22:10:28.130Z,1.67
2018-12-09T22:13:05.636Z,1.27
2018-12-09T22:15:43.145Z,0.90
2018-12-09T22:18:20.648Z,0.63
2018-12-09T22:20:58.268Z,1.57
2018-12-09T22:23:35.760Z,1.23
2018-12-09T22:26:13.277Z,1.37
2018-12-09T22:28:57.387Z,0.83
2018-12-09T22:31:34.917Z,1.23
2018-12-09T22:34:12.446Z,1.27
2018-12-09T22:36:50.054Z,1.20
2018-12-09T22:39:29.515Z,0.93
2018-12-09T22:42:07.035Z,1.70
2018-12-09T22:44:44.569Z,3.60
2018-12-09T22:47:22.056Z,1.50
2018-12-09T22:50:00.924Z,2.03
2018-12-09T22:52:39.476Z,1.57
2018-12-09T22:55:19.382Z,2.10
2018-12-09T22:57:55.556Z,2.73
2018-12-09T23:00:58.806Z,2.40
2018-12-09T23:03:36.323Z,1.33
2018-12-09T23:06:13.842Z,3.10
2018-12-09T23:08:58.657Z,2.53
2018-12-09T23:11:36.202Z,2.67
2018-12-09T23:14:13.728Z,3.73
2018-12-09T23:16:51.250Z,1.80
2018-12-09T23:19:36.338Z,1.20
2018-12-09T23:22:13.917Z,2.03
2018-12-09T23:24:51.392Z,1.27
2018-12-09T23:27:28.906Z,2.67
2018-12-09T23:30:09.113Z,2.50
2018-12-09T23:32:46.604Z,1.37
2018-12-09T23:35:24.132Z,3.17
2018-12-09T23:38:01.642Z,1.73
2018-12-09T23:40:42.816Z,1.57
2018-12-09T23:43:20.334Z,2.00
2018-12-09T23:45:57.857Z,3.33
2018-12-09T23:48:35.462Z,1.73
2018-12-09T23:51:12.990Z,2.50
2018-12-09T23:53:50.477Z,1.60
2018-12-09T23:56:28.051Z,2.20
2018-12-09T23:59:27.361Z,4.40
